Time;durP1;ratioP1;P1;durP2;ratioP2;P2;SDS_P1;SDS_P2;PMS_P1;PMS_P2;Temp;Humidity;BMP_temperature;BMP_pressure;BME280_temperature;BME280_humidity;BME280_pressure;Samples;Min_cycle;Max_cycle;Signal;HPM_P1;HPM_P2
2023/09/24 05:52:44;;;;;;;10.10;4.63;;;11.10;84.50;;;;;;4897945;29;20071;-91
2023/09/24 05:55:26;;;;;;;10.38;4.40;;;11.10;84.50;;;;;;4911490;29;20269;-91
2023/09/24 05:58:14;;;;;;;9.80;4.43;;;11.10;84.50;;;;;;4929417;29;20060;-91
2023/09/24 06:04:31;;;;;;;12.15;4.80;;;11.10;84.70;;;;;;4985322;28;20124;-90
2023/09/24 06:07:02;;;;;;;9.90;4.80;;;11.10;84.60;;;;;;4984898;28;20051;-91
2023/09/24 06:09:52;;;;;;;12.15;5.18;;;11.10;84.50;;;;;;4952781;28;20315;-91
2023/09/24 06:12:24;;;;;;;11.85;4.45;;;11.10;84.70;;;;;;4936346;28;20066;-91
2023/09/24 06:14:54;;;;;;;10.70;5.40;;;11.10;84.70;;;;;;4951672;28;20131;-91
2023/09/24 06:17:29;;;;;;;12.23;5.60;;;11.10;84.70;;;;;;4958749;28;20083;-91
2023/09/24 06:20:00;;;;;;;10.17;4.90;;;11.10;84.80;;;;;;4947714;28;20066;-91
2023/09/24 06:22:41;;;;;;;9.02;4.72;;;11.10;85.00;;;;;;4936161;28;20348;-91
2023/09/24 06:25:13;;;;;;;10.30;5.30;;;11.10;85.00;;;;;;4944878;28;20062;-90
2023/09/24 06:27:45;;;;;;;12.15;5.45;;;11.10;85.10;;;;;;4955120;28;20055;-91
2023/09/24 06:30:15;;;;;;;10.35;5.57;;;11.10;85.20;;;;;;4978122;28;20051;-90
2023/09/24 06:32:42;;;;;;;11.90;5.53;;;11.10;85.30;;;;;;4984713;28;20127;-92
2023/09/24 06:35:12;;;;;;;9.55;5.10;;;11.10;85.30;;;;;;4967268;28;20288;-90
2023/09/24 06:37:39;;;;;;;10.85;4.80;;;11.10;85.50;;;;;;4984523;28;20076;-90
2023/09/24 06:40:10;;;;;;;13.07;5.82;;;11.10;85.40;;;;;;4948225;28;20062;-90
2023/09/24 06:42:37;;;;;;;10.48;5.65;;;11.20;85.40;;;;;;4967669;28;20059;-91
2023/09/24 06:45:08;;;;;;;12.93;5.43;;;11.20;85.60;;;;;;4974635;28;20091;-90
2023/09/24 06:47:36;;;;;;;10.07;5.30;;;11.20;85.50;;;;;;4951869;28;20256;-90
2023/09/24 06:50:04;;;;;;;13.93;6.18;;;11.30;85.70;;;;;;4951911;28;20062;-91
2023/09/24 06:52:39;;;;;;;12.15;5.70;;;11.30;85.90;;;;;;4964483;28;20518;-91
2023/09/24 06:55:09;;;;;;;10.95;5.63;;;11.30;86.00;;;;;;4975457;28;20160;-91
2023/09/24 06:57:37;;;;;;;11.00;5.93;;;11.30;86.10;;;;;;4951843;28;20060;-91
2023/09/24 07:00:08;;;;;;;10.35;5.57;;;11.40;86.30;;;;;;4957462;28;20302;-90
2023/09/24 07:02:35;;;;;;;14.10;6.07;;;11.40;86.20;;;;;;4987009;28;20043;-90
2023/09/24 07:05:04;;;;;;;11.27;5.35;;;11.40;86.20;;;;;;4974830;28;20055;-85
2023/09/24 07:07:31;;;;;;;12.20;5.72;;;11.50;86.00;;;;;;4951486;28;20102;-90
2023/09/24 07:10:01;;;;;;;12.20;6.13;;;11.50;86.00;;;;;;4966051;28;20110;-90
2023/09/24 07:12:28;;;;;;;14.98;6.00;;;11.50;85.90;;;;;;4957983;28;20252;-90
2023/09/24 07:14:56;;;;;;;12.35;5.93;;;11.50;86.00;;;;;;4977076;28;20082;-90
2023/09/24 07:17:25;;;;;;;12.32;5.32;;;11.50;85.80;;;;;;4980196;28;20059;-90
2023/09/24 07:19:52;;;;;;;12.65;6.13;;;11.50;85.90;;;;;;4961453;28;20135;-89
2023/09/24 07:22:26;;;;;;;15.70;6.87;;;11.50;86.00;;;;;;4934986;28;20059;-89
2023/09/24 07:24:53;;;;;;;13.57;6.03;;;11.60;86.00;;;;;;4963159;28;20369;-90
2023/09/24 07:27:24;;;;;;;10.98;5.75;;;11.60;85.90;;;;;;4972795;28;20052;-90
2023/09/24 07:29:51;;;;;;;9.57;5.28;;;11.60;85.90;;;;;;4967425;28;20529;-90
2023/09/24 07:32:18;;;;;;;17.02;5.90;;;11.70;85.80;;;;;;4934649;28;20062;-90
2023/09/24 07:34:46;;;;;;;11.07;5.60;;;11.70;85.90;;;;;;4986262;28;20066;-90
2023/09/24 07:37:14;;;;;;;11.88;5.72;;;11.70;86.00;;;;;;4974572;28;20272;-90
2023/09/24 07:39:49;;;;;;;11.65;5.97;;;11.70;86.20;;;;;;4950627;28;20059;-89
2023/09/24 07:42:16;;;;;;;12.23;5.82;;;11.80;86.20;;;;;;4949516;28;20052;-87
2023/09/24 07:44:45;;;;;;;11.65;5.28;;;11.90;86.30;;;;;;4933576;28;20060;-91
2023/09/24 07:47:16;;;;;;;12.67;5.63;;;11.90;86.20;;;;;;4955505;28;20056;-92
2023/09/24 07:49:49;;;;;;;11.90;5.30;;;11.90;86.10;;;;;;4931741;29;20264;-91
2023/09/24 07:52:20;;;;;;;10.27;5.72;;;11.90;86.00;;;;;;4934446;28;20058;-90
2023/09/24 07:55:15;;;;;;;11.48;5.10;;;12.00;85.90;;;;;;4942332;28;20055;-91
2023/09/24 07:58:00;;;;;;;10.68;5.40;;;12.00;86.10;;;;;;4936725;28;20711;-91
2023/09/24 08:18:50;;;;;;;9.77;4.35;;;12.50;85.40;;;;;;4890490;29;20230;-91
2023/09/24 10:09:34;;;;;;;8.03;2.80;;;15.30;75.00;;;;;;4945408;28;20052;-91
2023/09/24 10:17:23;;;;;;;5.38;2.15;;;15.40;74.90;;;;;;4955648;28;20044;-91
2023/09/24 10:23:53;;;;;;;6.47;2.10;;;15.60;73.40;;;;;;4941722;28;20091;-87
2023/09/24 10:26:50;;;;;;;6.37;2.30;;;15.70;72.40;;;;;;4945996;28;20620;-89
2023/09/24 10:29:50;;;;;;;5.82;2.10;;;15.80;72.00;;;;;;4981678;28;20343;-90
2023/09/24 10:32:50;;;;;;;5.90;1.88;;;15.80;71.10;;;;;;4953032;28;20052;-91
2023/09/24 10:36:08;;;;;;;5.20;1.60;;;15.80;71.50;;;;;;4953817;28;20052;-89
2023/09/24 10:39:21;;;;;;;7.10;2.20;;;16.00;71.50;;;;;;4955065;28;20059;-89
2023/09/24 10:42:15;;;;;;;5.90;2.07;;;16.00;70.80;;;;;;4950714;28;20713;-87
2023/09/24 10:45:07;;;;;;;5.38;2.03;;;16.10;70.00;;;;;;4949515;28;20343;-89
2023/09/24 10:47:53;;;;;;;5.32;1.65;;;16.20;69.70;;;;;;4946636;28;20052;-91
2023/09/24 10:50:23;;;;;;;7.03;1.50;;;16.30;70.10;;;;;;4914500;29;20158;-88
2023/09/24 10:52:51;;;;;;;7.72;1.60;;;16.40;69.60;;;;;;4945823;28;20064;-87
2023/09/24 10:55:20;;;;;;;5.90;1.30;;;16.40;70.30;;;;;;4939395;28;20131;-88
2023/09/24 10:57:50;;;;;;;8.10;1.67;;;16.50;70.50;;;;;;4958308;28;20726;-87
2023/09/24 11:00:18;;;;;;;5.82;1.20;;;16.50;69.20;;;;;;4930724;29;20139;-87
2023/09/24 11:02:54;;;;;;;4.50;1.33;;;16.60;69.20;;;;;;4930674;29;20056;-87
2023/09/24 11:05:23;;;;;;;4.13;1.23;;;16.70;68.20;;;;;;4948912;28;20103;-88
2023/09/24 11:07:50;;;;;;;4.50;1.20;;;16.80;67.20;;;;;;4942391;28;20052;-88
2023/09/24 11:10:20;;;;;;;4.47;1.00;;;16.90;67.00;;;;;;4930683;29;20779;-88
2023/09/24 11:12:49;;;;;;;4.93;1.27;;;16.90;67.50;;;;;;4951174;28;20056;-88
2023/09/24 11:15:18;;;;;;;4.93;1.10;;;17.00;66.70;;;;;;4914682;29;20072;-88
2023/09/24 11:17:50;;;;;;;6.22;1.10;;;17.00;65.80;;;;;;4915379;29;20075;-88
2023/09/24 11:20:20;;;;;;;4.83;1.10;;;17.20;64.80;;;;;;4918703;28;20082;-88
2023/09/24 11:22:57;;;;;;;5.72;1.30;;;17.20;65.80;;;;;;4943542;28;20260;-88
2023/09/24 11:25:27;;;;;;;7.60;1.27;;;17.20;65.00;;;;;;4946017;28;20136;-88
2023/09/24 11:27:56;;;;;;;5.07;0.90;;;17.30;64.60;;;;;;4965844;28;20138;-88
2023/09/24 11:30:26;;;;;;;6.13;1.20;;;17.40;64.20;;;;;;4927961;29;20651;-88
2023/09/24 11:32:55;;;;;;;5.53;1.10;;;17.40;63.10;;;;;;4915139;29;20052;-88
2023/09/24 11:35:25;;;;;;;7.57;1.10;;;17.50;62.90;;;;;;4926815;29;20803;-88
2023/09/24 11:37:54;;;;;;;5.45;1.10;;;17.50;63.60;;;;;;4944389;28;20095;-88
2023/09/24 11:40:28;;;;;;;4.25;1.10;;;17.50;63.30;;;;;;4933827;29;20058;-88
2023/09/24 11:42:59;;;;;;;4.18;1.33;;;17.60;63.40;;;;;;4933656;29;20055;-88
2023/09/24 11:45:46;;;;;;;4.13;0.93;;;17.60;63.40;;;;;;4951888;28;20119;-88
2023/09/24 11:48:15;;;;;;;5.68;1.23;;;17.60;64.50;;;;;;4968348;28;20280;-88
2023/09/24 11:50:44;;;;;;;5.20;1.15;;;17.80;64.40;;;;;;4974348;28;20059;-88
2023/09/24 11:53:12;;;;;;;4.50;1.10;;;17.80;63.80;;;;;;4985517;28;20063;-88
2023/09/24 11:55:44;;;;;;;5.43;1.10;;;17.90;62.20;;;;;;4937861;28;20115;-88
2023/09/24 11:58:17;;;;;;;4.60;1.20;;;18.00;61.70;;;;;;4952593;28;20063;-87
2023/09/24 12:00:45;;;;;;;4.32;0.95;;;18.00;60.70;;;;;;4966693;28;20736;-88
2023/09/24 12:03:16;;;;;;;4.13;0.90;;;18.00;61.70;;;;;;4952599;28;20062;-88
2023/09/24 12:05:45;;;;;;;5.00;0.90;;;18.00;62.20;;;;;;4954931;28;20171;-88
2023/09/24 12:08:19;;;;;;;7.25;1.33;;;18.00;62.70;;;;;;4952516;28;20171;-88
2023/09/24 12:10:50;;;;;;;7.13;1.43;;;18.10;62.70;;;;;;4968912;28;20059;-88
2023/09/24 12:13:18;;;;;;;3.50;0.90;;;18.10;62.30;;;;;;4974494;28;20263;-88
2023/09/24 12:15:46;;;;;;;4.82;1.10;;;18.20;62.60;;;;;;4958542;28;20055;-88
2023/09/24 12:18:21;;;;;;;5.55;1.10;;;18.20;63.10;;;;;;4952842;28;20071;-88
2023/09/24 12:21:10;;;;;;;4.47;1.30;;;18.20;63.60;;;;;;4936311;28;20060;-88
2023/09/24 12:23:40;;;;;;;5.30;1.30;;;18.30;63.00;;;;;;4953387;28;20052;-88
2023/09/24 12:26:15;;;;;;;5.40;1.27;;;18.40;61.80;;;;;;5002699;28;20255;-88
2023/09/24 12:28:45;;;;;;;4.68;1.00;;;18.40;60.80;;;;;;4984641;28;20131;-88
2023/09/24 12:31:17;;;;;;;4.68;1.10;;;18.50;60.70;;;;;;4954323;28;20661;-88
2023/09/24 12:33:44;;;;;;;5.70;1.20;;;18.50;60.90;;;;;;4968479;28;20055;-88
2023/09/24 12:36:11;;;;;;;4.43;1.10;;;18.50;61.60;;;;;;4968173;28;20434;-89
2023/09/24 12:38:38;;;;;;;4.80;1.13;;;18.50;61.30;;;;;;4938574;28;20360;-89
2023/09/24 12:41:05;;;;;;;4.97;1.10;;;18.60;61.50;;;;;;5003780;28;20055;-88
2023/09/24 12:43:34;;;;;;;4.47;1.17;;;18.60;61.90;;;;;;4968102;28;20135;-88
2023/09/24 12:46:07;;;;;;;4.53;1.00;;;18.60;61.20;;;;;;4967921;28;20051;-88
2023/09/24 12:48:36;;;;;;;4.40;0.90;;;18.70;60.50;;;;;;4976767;28;20157;-88
2023/09/24 12:51:03;;;;;;;4.43;1.10;;;18.60;60.30;;;;;;4967264;28;20735;-88
2023/09/24 12:53:31;;;;;;;4.38;0.95;;;18.70;59.70;;;;;;4951146;28;20499;-88
2023/09/24 12:55:58;;;;;;;4.25;0.93;;;18.70;58.70;;;;;;4952381;28;20650;-88
2023/09/24 12:58:25;;;;;;;4.78;1.27;;;18.70;58.00;;;;;;4985981;28;20052;-88
2023/09/24 13:00:54;;;;;;;4.00;0.90;;;18.70;58.80;;;;;;4952172;28;20138;-88
2023/09/24 13:03:21;;;;;;;5.38;1.00;;;18.70;59.10;;;;;;4936163;28;21078;-88
2023/09/24 13:05:48;;;;;;;5.32;1.00;;;18.70;59.90;;;;;;4991781;28;20521;-87
2023/09/24 13:08:15;;;;;;;5.78;1.40;;;18.80;60.10;;;;;;4971899;28;20058;-88
2023/09/24 13:10:42;;;;;;;5.28;1.05;;;18.80;59.50;;;;;;4968306;28;20083;-87
2023/09/24 13:25:45;;;;;;;4.82;1.10;;;19.10;58.90;;;;;;4960529;28;20051;-89
2023/09/24 13:49:17;;;;;;;5.13;0.90;;;19.40;58.90;;;;;;4920507;29;20068;-89
2023/09/24 13:56:11;;;;;;;5.65;1.00;;;19.50;59.90;;;;;;4918770;29;20253;-88
2023/09/24 13:58:46;;;;;;;4.03;0.95;;;19.70;59.70;;;;;;4932561;28;20079;-89
2023/09/24 14:01:13;;;;;;;4.28;1.00;;;19.70;58.10;;;;;;4950203;28;20047;-87
2023/09/24 14:03:40;;;;;;;4.72;0.93;;;19.90;58.30;;;;;;4950484;28;20530;-87
2023/09/24 14:06:09;;;;;;;5.43;1.10;;;19.90;58.10;;;;;;4957516;28;20099;-87
2023/09/24 14:14:16;;;;;;;4.05;0.90;;;20.00;55.80;;;;;;4921039;28;20732;-88
2023/09/24 14:17:08;;;;;;;4.05;0.98;;;20.00;55.70;;;;;;4966629;28;20055;-90
2023/09/24 14:19:44;;;;;;;4.83;1.00;;;20.10;55.50;;;;;;4954623;28;20059;-93
2023/09/24 14:22:15;;;;;;;5.10;0.98;;;20.10;56.00;;;;;;4935389;28;20316;-91
2023/09/24 14:24:47;;;;;;;3.50;1.02;;;20.10;56.10;;;;;;4953595;28;20547;-92
2023/09/24 14:27:17;;;;;;;4.07;1.05;;;20.10;56.10;;;;;;4951711;28;20055;-93
2023/09/24 14:30:07;;;;;;;5.78;1.02;;;20.10;56.20;;;;;;4941401;28;20048;-91
2023/09/24 14:32:36;;;;;;;3.80;1.20;;;20.20;56.00;;;;;;4983549;28;20056;-91
2023/09/24 14:35:10;;;;;;;4.68;1.10;;;20.20;56.30;;;;;;4947648;28;20283;-92
2023/09/24 14:37:39;;;;;;;4.57;1.10;;;20.30;57.10;;;;;;4980704;28;20060;-92
2023/09/24 14:40:08;;;;;;;4.40;1.20;;;20.30;57.10;;;;;;4939793;28;21099;-91
2023/09/24 14:42:36;;;;;;;5.03;1.10;;;20.30;56.70;;;;;;4972564;28;20135;-92
2023/09/24 14:45:11;;;;;;;5.83;1.40;;;20.30;56.50;;;;;;4940098;28;20691;-91
2023/09/24 14:47:42;;;;;;;4.13;1.10;;;20.30;56.60;;;;;;4940164;28;20296;-91
2023/09/24 14:50:27;;;;;;;5.65;1.00;;;20.30;56.70;;;;;;4939645;28;20044;-91
2023/09/24 14:52:57;;;;;;;3.90;1.20;;;20.40;57.30;;;;;;4953375;28;20086;-93
2023/09/24 14:55:27;;;;;;;4.28;1.20;;;20.40;56.70;;;;;;4955265;28;20048;-92
2023/09/24 14:57:54;;;;;;;3.97;1.10;;;20.50;56.70;;;;;;4931427;28;20154;-91
2023/09/24 15:00:27;;;;;;;4.68;1.20;;;20.50;56.50;;;;;;4939936;28;21045;-92
2023/09/24 15:02:59;;;;;;;4.55;1.02;;;20.50;56.30;;;;;;4923540;28;20051;-92
2023/09/24 15:05:37;;;;;;;5.75;1.30;;;20.50;56.40;;;;;;4939496;28;20056;-91
2023/09/24 15:08:08;;;;;;;4.82;1.40;;;20.50;55.80;;;;;;4956131;28;20146;-91
2023/09/24 15:10:40;;;;;;;4.67;1.27;;;20.50;55.70;;;;;;4938641;28;20058;-92
2023/09/24 15:13:11;;;;;;;5.30;1.00;;;20.50;55.00;;;;;;4955360;28;21317;-92
2023/09/24 15:15:42;;;;;;;3.58;1.08;;;20.50;55.20;;;;;;4971316;28;20048;-92
2023/09/24 15:18:11;;;;;;;4.55;1.10;;;20.60;55.10;;;;;;4955083;28;20066;-91
2023/09/24 15:20:44;;;;;;;5.03;1.10;;;20.60;54.60;;;;;;4921880;28;20461;-92
2023/09/24 15:23:17;;;;;;;3.93;1.20;;;20.60;55.00;;;;;;4938394;28;20134;-91
2023/09/24 15:25:48;;;;;;;4.43;1.00;;;20.60;54.60;;;;;;4926099;28;20283;-92
2023/09/24 15:28:19;;;;;;;4.50;0.90;;;20.60;54.60;;;;;;4955971;28;21284;-91
2023/09/24 15:30:47;;;;;;;3.50;1.10;;;20.60;55.00;;;;;;4923851;28;20047;-91
2023/09/24 15:33:18;;;;;;;4.40;1.17;;;20.60;55.80;;;;;;4943692;28;20053;-91
2023/09/24 15:35:48;;;;;;;4.30;1.03;;;20.60;55.60;;;;;;4942106;28;20051;-91
2023/09/24 15:38:17;;;;;;;5.30;1.00;;;20.60;55.40;;;;;;4958977;28;20666;-90
2023/09/24 15:40:53;;;;;;;3.45;1.17;;;20.60;54.80;;;;;;4942596;28;21024;-91
2023/09/24 15:43:25;;;;;;;5.28;1.15;;;20.60;55.00;;;;;;4974956;28;20553;-91
2023/09/24 15:45:52;;;;;;;5.18;1.05;;;20.60;55.30;;;;;;4974181;28;20051;-91
2023/09/24 15:48:19;;;;;;;3.67;1.07;;;20.60;55.90;;;;;;4960293;28;20059;-91
2023/09/24 15:50:49;;;;;;;3.90;1.30;;;20.60;55.90;;;;;;4984856;28;20262;-91
2023/09/24 15:53:18;;;;;;;4.38;1.10;;;20.60;54.60;;;;;;4939897;28;20056;-91
2023/09/24 15:55:49;;;;;;;4.78;1.10;;;20.60;55.20;;;;;;4955157;28;20056;-91
2023/09/24 15:58:17;;;;;;;3.78;1.10;;;20.60;55.30;;;;;;4974795;28;20059;-90
2023/09/24 16:00:44;;;;;;;4.17;1.00;;;20.70;55.00;;;;;;4985772;28;20115;-91
2023/09/24 16:03:15;;;;;;;3.70;0.90;;;20.60;55.30;;;;;;4954953;28;20291;-91
2023/09/24 16:05:42;;;;;;;4.10;1.00;;;20.70;55.00;;;;;;4970522;28;20062;-90
2023/09/24 16:08:10;;;;;;;5.72;1.20;;;20.70;55.20;;;;;;4986281;28;20058;-91
2023/09/24 16:10:42;;;;;;;3.55;1.00;;;20.70;54.80;;;;;;4971112;28;20571;-91
2023/09/24 16:13:10;;;;;;;4.00;0.90;;;20.70;55.00;;;;;;4987072;28;20537;-90
2023/09/24 16:15:38;;;;;;;5.55;1.45;;;20.60;55.40;;;;;;4954495;28;20776;-89
2023/09/24 16:18:06;;;;;;;4.68;0.90;;;20.70;55.30;;;;;;4973355;28;20070;-90
2023/09/24 16:20:37;;;;;;;3.30;0.98;;;20.70;55.30;;;;;;4957553;28;20047;-92
2023/09/24 16:23:05;;;;;;;2.92;0.90;;;20.70;55.70;;;;;;4987807;28;20048;-87
2023/09/24 16:26:06;;;;;;;5.40;1.10;;;20.70;55.60;;;;;;4971863;28;20091;-92
2023/09/24 16:28:33;;;;;;;3.63;0.90;;;20.70;55.70;;;;;;4941302;28;20291;-88
2023/09/24 16:31:04;;;;;;;4.32;0.93;;;20.70;55.70;;;;;;4973629;28;20536;-89
2023/09/24 16:33:33;;;;;;;3.92;1.00;;;20.80;55.80;;;;;;4941335;28;20467;-90
2023/09/24 16:36:00;;;;;;;4.82;1.23;;;20.80;55.70;;;;;;4984432;28;20055;-91
2023/09/24 16:38:29;;;;;;;4.33;1.10;;;20.80;55.40;;;;;;4992823;28;20118;-86
2023/09/24 16:41:11;;;;;;;5.25;1.13;;;20.80;55.60;;;;;;5005131;28;20260;-92
2023/09/24 16:43:38;;;;;;;3.65;1.20;;;20.80;55.30;;;;;;4991467;28;20110;-91
2023/09/24 16:46:38;;;;;;;4.07;1.08;;;20.80;55.50;;;;;;4987003;28;20051;-91
2023/09/24 16:49:05;;;;;;;4.38;1.20;;;20.80;55.70;;;;;;4955986;28;20063;-90
2023/09/24 16:51:33;;;;;;;4.60;1.03;;;20.70;55.40;;;;;;4973804;28;20052;-91
2023/09/24 16:54:00;;;;;;;4.50;1.10;;;20.70;55.40;;;;;;5004440;28;20263;-87
2023/09/24 16:56:29;;;;;;;4.65;1.20;;;20.70;55.40;;;;;;4990439;28;20051;-89
2023/09/24 16:58:56;;;;;;;3.85;1.05;;;20.70;55.70;;;;;;5006845;28;20051;-89
2023/09/24 17:01:24;;;;;;;3.80;0.90;;;20.70;56.20;;;;;;4973849;28;20063;-89
2023/09/24 17:03:51;;;;;;;5.03;1.03;;;20.70;56.50;;;;;;4990264;28;20489;-86
2023/09/24 17:06:20;;;;;;;3.50;0.95;;;20.80;56.40;;;;;;4988524;28;20390;-90
2023/09/24 17:08:47;;;;;;;3.22;1.10;;;20.80;56.40;;;;;;4950744;28;20052;-89
2023/09/24 17:11:14;;;;;;;3.90;1.00;;;20.80;55.70;;;;;;4983581;28;20058;-88
2023/09/24 17:13:43;;;;;;;3.60;1.17;;;20.80;55.90;;;;;;4954490;28;20163;-89
2023/09/24 17:16:13;;;;;;;3.40;1.00;;;20.80;56.00;;;;;;4956271;28;20056;-89
2023/09/24 17:18:40;;;;;;;4.50;1.10;;;20.80;56.50;;;;;;4978372;28;20251;-90
2023/09/24 17:21:10;;;;;;;5.57;1.00;;;20.90;56.30;;;;;;5008656;28;20996;-90
2023/09/24 17:23:37;;;;;;;3.13;0.98;;;20.90;56.00;;;;;;4991959;28;20059;-89
2023/09/24 17:26:09;;;;;;;3.80;1.10;;;20.80;55.90;;;;;;4972922;28;20100;-90
2023/09/24 17:28:43;;;;;;;3.97;1.00;;;20.80;56.30;;;;;;4963806;28;20514;-89
2023/09/24 17:31:12;;;;;;;3.58;0.90;;;20.80;56.40;;;;;;4964592;28;20675;-90
2023/09/24 17:33:39;;;;;;;3.83;0.90;;;20.80;56.60;;;;;;4940014;28;20087;-90
2023/09/24 17:36:09;;;;;;;3.47;1.10;;;20.90;56.80;;;;;;4955693;28;20821;-90
2023/09/24 17:38:37;;;;;;;4.70;1.05;;;20.90;56.40;;;;;;4938576;28;20059;-90
2023/09/24 17:41:04;;;;;;;4.60;1.30;;;20.80;56.20;;;;;;4937369;28;21053;-89
2023/09/24 17:43:32;;;;;;;5.50;1.25;;;20.80;56.70;;;;;;4975998;28;20327;-86
2023/09/24 17:46:03;;;;;;;4.20;1.02;;;20.80;56.90;;;;;;4957011;28;20055;-86
2023/09/24 17:48:30;;;;;;;4.35;1.00;;;20.80;57.20;;;;;;4952202;28;20149;-87
2023/09/24 17:51:00;;;;;;;4.28;0.98;;;20.80;57.40;;;;;;4952645;28;20083;-87
2023/09/24 17:53:27;;;;;;;3.30;1.00;;;20.80;57.40;;;;;;4953136;28;20056;-87
2023/09/24 17:55:55;;;;;;;3.72;0.98;;;20.80;57.50;;;;;;4935729;28;20139;-85
2023/09/24 17:58:23;;;;;;;3.85;1.20;;;20.80;57.30;;;;;;4967830;28;20044;-86
2023/09/24 18:00:51;;;;;;;3.70;0.95;;;20.70;57.50;;;;;;4963184;28;20804;-87
2023/09/24 18:03:19;;;;;;;4.40;1.08;;;20.70;57.60;;;;;;4935347;28;20048;-87
2023/09/24 18:05:48;;;;;;;3.57;0.97;;;20.60;57.50;;;;;;4954714;28;20048;-85
2023/09/24 18:08:20;;;;;;;3.85;1.15;;;20.60;57.80;;;;;;4966100;28;20556;-87
2023/09/24 18:10:47;;;;;;;3.17;1.05;;;20.50;58.00;;;;;;4954343;28;20055;-87
2023/09/24 18:13:15;;;;;;;3.30;1.00;;;20.50;58.10;;;;;;4951004;28;20051;-86
2023/09/24 18:15:42;;;;;;;3.28;0.98;;;20.50;58.00;;;;;;4938947;28;20047;-87
2023/09/24 18:18:09;;;;;;;3.80;1.00;;;20.50;58.10;;;;;;4989795;28;20407;-88
2023/09/24 18:20:39;;;;;;;3.90;1.10;;;20.40;58.10;;;;;;4986445;28;20083;-89
2023/09/24 18:23:06;;;;;;;4.00;1.30;;;20.40;57.90;;;;;;4967697;28;20052;-87
2023/09/24 18:25:34;;;;;;;4.50;1.27;;;20.30;58.10;;;;;;4967431;28;20052;-87
2023/09/24 18:28:01;;;;;;;3.67;1.23;;;20.30;58.10;;;;;;4955300;28;20407;-88
2023/09/24 18:30:28;;;;;;;4.67;1.30;;;20.20;58.10;;;;;;4955431;28;20169;-89
2023/09/24 18:32:56;;;;;;;4.07;1.30;;;20.10;58.10;;;;;;4987703;28;20051;-89
2023/09/24 18:35:23;;;;;;;4.40;1.52;;;20.10;58.00;;;;;;4986133;28;20055;-88
2023/09/24 18:37:51;;;;;;;4.85;1.35;;;20.00;58.10;;;;;;4951903;28;20047;-88
2023/09/24 18:40:18;;;;;;;5.03;1.10;;;20.00;57.90;;;;;;4951668;28;20063;-88
2023/09/24 18:42:47;;;;;;;4.25;1.15;;;20.00;57.80;;;;;;4968049;28;20550;-87
2023/09/24 18:45:14;;;;;;;5.22;1.40;;;19.90;58.00;;;;;;4967265;28;20142;-88
2023/09/24 18:47:41;;;;;;;4.22;1.33;;;19.80;58.00;;;;;;4968053;23;20639;-90
2023/09/24 18:50:10;;;;;;;3.38;1.08;;;19.70;57.90;;;;;;4951851;28;20146;-87
2023/09/24 18:52:37;;;;;;;3.73;1.17;;;19.70;58.00;;;;;;4969113;28;20162;-88
2023/09/24 18:55:06;;;;;;;5.47;1.15;;;19.50;58.20;;;;;;4954399;28;20858;-88
2023/09/24 18:57:33;;;;;;;4.68;1.20;;;19.50;58.30;;;;;;4931737;28;20063;-88
2023/09/24 19:00:02;;;;;;;5.45;1.50;;;19.40;58.40;;;;;;4935565;28;20055;-88
2023/09/24 19:02:29;;;;;;;4.07;1.30;;;19.40;58.20;;;;;;4934966;28;20047;-88
2023/09/24 19:04:56;;;;;;;4.20;1.30;;;19.30;58.00;;;;;;4966403;28;20056;-88
2023/09/24 19:07:23;;;;;;;6.22;1.38;;;19.10;58.50;;;;;;4944376;28;20263;-87
2023/09/24 19:09:52;;;;;;;5.03;1.48;;;19.10;58.70;;;;;;4941675;28;20217;-87
2023/09/24 19:12:20;;;;;;;4.47;1.50;;;19.00;58.80;;;;;;4961207;28;20052;-87
2023/09/24 19:14:47;;;;;;;4.70;1.42;;;18.90;59.00;;;;;;4942987;28;20051;-88
2023/09/24 19:17:15;;;;;;;4.07;1.40;;;18.90;59.20;;;;;;4942483;28;20586;-87
2023/09/24 19:19:44;;;;;;;4.50;1.27;;;18.90;59.30;;;;;;4928264;28;20280;-88
2023/09/24 19:22:13;;;;;;;6.22;1.42;;;18.80;59.00;;;;;;4945164;28;20597;-88
2023/09/24 19:24:41;;;;;;;4.35;1.42;;;18.80;59.20;;;;;;4931406;28;20106;-89
2023/09/24 19:27:08;;;;;;;4.32;1.50;;;18.70;59.30;;;;;;4950714;28;20070;-88
2023/09/24 19:29:36;;;;;;;5.47;1.50;;;18.70;59.50;;;;;;4949184;28;20178;-87
2023/09/24 19:32:04;;;;;;;5.30;1.40;;;18.60;59.30;;;;;;4926045;28;20753;-88
2023/09/24 19:34:30;;;;;;;4.82;1.77;;;18.50;59.50;;;;;;4935169;28;20052;-86
2023/09/24 19:36:58;;;;;;;4.43;1.10;;;18.50;59.40;;;;;;4922482;28;20048;-87
2023/09/24 19:39:27;;;;;;;4.88;1.52;;;18.40;59.60;;;;;;4951270;28;20142;-86
2023/09/24 19:41:54;;;;;;;6.10;1.60;;;18.40;59.60;;;;;;4950789;28;20485;-87
2023/09/24 19:44:22;;;;;;;5.70;1.38;;;18.40;59.90;;;;;;4947484;28;20279;-86
2023/09/24 19:46:51;;;;;;;6.07;1.33;;;18.30;59.90;;;;;;4946349;28;20056;-86
2023/09/24 19:49:18;;;;;;;4.10;1.55;;;18.30;59.90;;;;;;4950054;28;20048;-86
2023/09/24 19:51:45;;;;;;;4.20;1.23;;;18.30;60.10;;;;;;4949803;28;20519;-86
2023/09/24 19:54:14;;;;;;;7.47;1.30;;;18.20;59.70;;;;;;4937003;28;20052;-87
2023/09/24 19:56:43;;;;;;;4.07;1.27;;;18.10;60.00;;;;;;4948167;28;20255;-87
2023/09/24 19:59:10;;;;;;;4.72;1.45;;;18.10;60.00;;;;;;4937139;28;20063;-87
2023/09/24 20:01:37;;;;;;;5.18;1.40;;;18.00;60.10;;;;;;4955489;28;20521;-86
2023/09/24 20:04:06;;;;;;;4.70;1.20;;;17.90;60.20;;;;;;4955131;28;20488;-85
2023/09/24 20:06:33;;;;;;;4.90;1.33;;;17.80;60.60;;;;;;4954878;28;20221;-85
2023/09/24 20:09:04;;;;;;;6.22;1.33;;;17.80;60.70;;;;;;4952111;28;20260;-86
2023/09/24 20:11:32;;;;;;;4.00;1.20;;;17.80;60.70;;;;;;4954012;28;20062;-85
2023/09/24 20:14:01;;;;;;;4.45;1.20;;;17.60;61.00;;;;;;4937261;28;20067;-83
2023/09/24 20:16:30;;;;;;;5.13;1.13;;;17.60;61.00;;;;;;4955258;28;20059;-86
2023/09/24 20:18:57;;;;;;;5.77;1.20;;;17.60;61.00;;;;;;4949403;28;20055;-86
2023/09/24 20:21:27;;;;;;;4.43;1.13;;;17.50;61.20;;;;;;4952203;28;20280;-86
2023/09/24 20:23:54;;;;;;;4.13;1.15;;;17.50;61.20;;;;;;4931627;28;20576;-86
2023/09/24 20:26:21;;;;;;;3.45;1.35;;;17.50;61.40;;;;;;4931639;28;20055;-86
2023/09/24 20:28:48;;;;;;;3.50;1.10;;;17.40;61.30;;;;;;4942166;28;20422;-86
2023/09/24 20:31:16;;;;;;;4.40;1.07;;;17.40;61.40;;;;;;4931894;28;20051;-86
2023/09/24 20:33:43;;;;;;;4.38;1.40;;;17.30;61.40;;;;;;4953296;28;20665;-85
2023/09/24 20:36:10;;;;;;;4.22;1.20;;;17.20;61.30;;;;;;4953923;28;20067;-86
2023/09/24 20:38:40;;;;;;;5.15;1.20;;;17.20;61.40;;;;;;4965486;28;20056;-86
2023/09/24 20:41:13;;;;;;;4.65;1.20;;;17.10;61.60;;;;;;4930744;28;20141;-86
2023/09/24 20:43:40;;;;;;;4.10;1.20;;;17.00;61.70;;;;;;4945204;28;20471;-86
2023/09/24 20:46:09;;;;;;;5.45;1.30;;;17.00;62.00;;;;;;4970976;28;20287;-85
2023/09/24 20:48:36;;;;;;;4.18;1.23;;;17.00;62.00;;;;;;4971511;28;20099;-86
2023/09/24 20:51:03;;;;;;;4.22;1.20;;;16.90;62.20;;;;;;4970775;28;20051;-86
2023/09/24 20:53:30;;;;;;;4.25;1.02;;;16.90;62.20;;;;;;4955326;28;20161;-86
2023/09/24 20:55:58;;;;;;;4.50;1.07;;;16.90;62.20;;;;;;4974644;28;20532;-85
2023/09/24 20:58:26;;;;;;;4.22;1.20;;;16.90;62.20;;;;;;4939030;28;20279;-86
2023/09/24 21:00:56;;;;;;;3.88;1.10;;;16.80;62.30;;;;;;4938681;28;20051;-86
2023/09/24 21:03:23;;;;;;;3.65;1.10;;;16.80;62.30;;;;;;4953835;28;20575;-85
2023/09/24 21:05:50;;;;;;;3.60;1.10;;;16.70;62.30;;;;;;4938526;28;20089;-86
2023/09/24 21:08:17;;;;;;;3.63;1.20;;;16.60;62.50;;;;;;4954967;28;20051;-85
2023/09/24 21:10:45;;;;;;;4.97;1.30;;;16.50;62.60;;;;;;4939190;28;20267;-85
2023/09/24 21:13:14;;;;;;;3.92;1.23;;;16.50;62.70;;;;;;4954142;28;20499;-85
2023/09/24 21:15:41;;;;;;;4.35;1.30;;;16.40;62.90;;;;;;4971052;28;20098;-86
2023/09/24 21:18:08;;;;;;;3.58;1.00;;;16.40;63.20;;;;;;4971841;28;20490;-85
2023/09/24 21:20:36;;;;;;;3.60;1.00;;;16.40;63.30;;;;;;4969945;28;20044;-85
2023/09/24 21:23:03;;;;;;;4.10;1.30;;;16.20;63.40;;;;;;4939414;28;20283;-85
2023/09/24 21:25:30;;;;;;;4.03;1.10;;;16.20;63.60;;;;;;4970904;28;20051;-86
2023/09/24 21:27:58;;;;;;;4.28;1.17;;;16.10;63.70;;;;;;4970788;28;20082;-85
2023/09/24 21:30:30;;;;;;;3.22;1.15;;;16.10;63.70;;;;;;4951820;28;20063;-85
2023/09/24 21:32:58;;;;;;;4.10;1.10;;;16.00;63.80;;;;;;4970927;28;20055;-86
2023/09/24 21:35:29;;;;;;;4.25;1.30;;;16.00;63.90;;;;;;4954421;28;20251;-86
2023/09/24 21:37:56;;;;;;;4.47;1.40;;;16.00;64.00;;;;;;4970078;28;20049;-86
2023/09/24 21:40:23;;;;;;;3.42;1.00;;;16.00;64.00;;;;;;4949361;28;20130;-85
2023/09/24 21:42:50;;;;;;;3.78;1.25;;;16.00;64.10;;;;;;4938045;28;20057;-86
2023/09/24 21:45:17;;;;;;;4.03;1.40;;;15.90;64.30;;;;;;4970899;28;20466;-86
2023/09/24 21:47:45;;;;;;;4.05;1.30;;;15.80;64.40;;;;;;4970577;28;20267;-86
2023/09/24 21:50:12;;;;;;;4.13;1.27;;;15.80;64.60;;;;;;4954129;28;20531;-85
2023/09/24 21:52:40;;;;;;;4.90;1.38;;;15.80;64.60;;;;;;4954112;28;20139;-85
2023/09/24 21:55:09;;;;;;;4.38;1.40;;;15.80;64.60;;;;;;4954406;28;20055;-85
2023/09/24 21:57:36;;;;;;;3.87;1.30;;;15.80;64.70;;;;;;4973380;28;20093;-85